Terminal Aerodrome Forecast
Issued by NWS Wilmington, OH

Home | Current Version | Previous Version | Text Only | Print | Product List | Glossary On
Versions: 1 2 3 4 5 6 7 8 9 10 11 12 13 14 15 16 17 18 19
955
FTUS41 KILN 201122
TAFCMH
TAF
KCMH 201122Z 2012/2112 21007KT P6SM FEW250
     FM201600 21012G18KT P6SM SCT250
     FM202200 19008KT P6SM SCT250
     FM210500 19008KT P6SM SCT250 WS020/22040KT=

USA.gov is the U.S. government's official web portal to all federal, state and local government web resources and services.